sensor_id;sensor_type;location;lat;lon;timestamp;temperature;humidity
3256;DHT22;1640;48.504;9.224;2023-02-10T00:01:07;-3.70;99.90
3256;DHT22;1640;48.504;9.224;2023-02-10T00:03:35;-3.80;99.90
3256;DHT22;1640;48.504;9.224;2023-02-10T00:06:03;-3.80;99.90
3256;DHT22;1640;48.504;9.224;2023-02-10T00:08:31;-3.80;99.90
3256;DHT22;1640;48.504;9.224;2023-02-10T00:10:59;-3.90;99.90
3256;DHT22;1640;48.504;9.224;2023-02-10T00:13:27;-3.90;99.90
3256;DHT22;1640;48.504;9.224;2023-02-10T00:15:57;-4.00;99.90
3256;DHT22;1640;48.504;9.224;2023-02-10T00:18:26;-4.00;99.90
3256;DHT22;1640;48.504;9.224;2023-02-10T00:20:54;-4.00;99.90
3256;DHT22;1640;48.504;9.224;2023-02-10T00:23:21;-4.10;99.90
3256;DHT22;1640;48.504;9.224;2023-02-10T00:25:48;-4.20;99.90
3256;DHT22;1640;48.504;9.224;2023-02-10T00:28:16;-4.20;99.90
3256;DHT22;1640;48.504;9.224;2023-02-10T00:30:43;-4.20;99.90
3256;DHT22;1640;48.504;9.224;2023-02-10T00:33:12;-4.30;99.90
3256;DHT22;1640;48.504;9.224;2023-02-10T00:35:40;-4.30;99.90
3256;DHT22;1640;48.504;9.224;2023-02-10T00:38:07;-4.30;99.90
3256;DHT22;1640;48.504;9.224;2023-02-10T00:40:35;-4.30;99.90
3256;DHT22;1640;48.504;9.224;2023-02-10T00:43:02;-4.30;99.90
3256;DHT22;1640;48.504;9.224;2023-02-10T00:45:30;-4.20;99.90
3256;DHT22;1640;48.504;9.224;2023-02-10T00:47:57;-4.20;99.90
3256;DHT22;1640;48.504;9.224;2023-02-10T00:50:26;-4.20;99.90
3256;DHT22;1640;48.504;9.224;2023-02-10T00:52:53;-4.30;99.90
3256;DHT22;1640;48.504;9.224;2023-02-10T00:55:21;-4.30;99.90
3256;DHT22;1640;48.504;9.224;2023-02-10T00:57:48;-4.30;99.90
3256;DHT22;1640;48.504;9.224;2023-02-10T01:00:16;-4.30;99.90
3256;DHT22;1640;48.504;9.224;2023-02-10T01:02:43;-4.30;99.90
3256;DHT22;1640;48.504;9.224;2023-02-10T01:05:11;-4.20;99.90
3256;DHT22;1640;48.504;9.224;2023-02-10T01:07:40;-4.20;99.90
3256;DHT22;1640;48.504;9.224;2023-02-10T01:10:07;-4.30;99.90
3256;DHT22;1640;48.504;9.224;2023-02-10T01:12:35;-4.30;99.90
3256;DHT22;1640;48.504;9.224;2023-02-10T01:15:03;-4.30;99.90
3256;DHT22;1640;48.504;9.224;2023-02-10T01:17:30;-4.30;99.90
3256;DHT22;1640;48.504;9.224;2023-02-10T01:19:58;-4.30;99.90
3256;DHT22;1640;48.504;9.224;2023-02-10T01:22:26;-4.30;99.90
3256;DHT22;1640;48.504;9.224;2023-02-10T01:24:54;-4.30;99.90
3256;DHT22;1640;48.504;9.224;2023-02-10T01:27:22;-4.40;99.90
3256;DHT22;1640;48.504;9.224;2023-02-10T01:29:49;-4.40;99.90
3256;DHT22;1640;48.504;9.224;2023-02-10T01:32:17;-4.50;99.90
3256;DHT22;1640;48.504;9.224;2023-02-10T01:34:45;-4.50;99.90
3256;DHT22;1640;48.504;9.224;2023-02-10T01:37:12;-4.50;99.90
3256;DHT22;1640;48.504;9.224;2023-02-10T01:39:40;-4.50;99.90
3256;DHT22;1640;48.504;9.224;2023-02-10T01:42:12;-4.60;99.90
3256;DHT22;1640;48.504;9.224;2023-02-10T01:45:11;-4.60;99.90
3256;DHT22;1640;48.504;9.224;2023-02-10T01:47:40;-4.60;99.90
3256;DHT22;1640;48.504;9.224;2023-02-10T01:50:08;-4.70;99.90
3256;DHT22;1640;48.504;9.224;2023-02-10T01:52:36;-4.70;99.90
3256;DHT22;1640;48.504;9.224;2023-02-10T01:55:07;-4.60;99.90
3256;DHT22;1640;48.504;9.224;2023-02-10T01:57:38;-4.60;99.90
3256;DHT22;1640;48.504;9.224;2023-02-10T02:00:08;-4.60;99.90
3256;DHT22;1640;48.504;9.224;2023-02-10T02:02:37;-4.60;99.90
3256;DHT22;1640;48.504;9.224;2023-02-10T02:05:06;-4.60;99.90
3256;DHT22;1640;48.504;9.224;2023-02-10T02:07:35;-4.60;99.90
3256;DHT22;1640;48.504;9.224;2023-02-10T02:10:05;-4.60;99.90
3256;DHT22;1640;48.504;9.224;2023-02-10T02:12:42;-4.60;99.90
3256;DHT22;1640;48.504;9.224;2023-02-10T02:15:15;-4.70;99.90
3256;DHT22;1640;48.504;9.224;2023-02-10T02:17:50;-4.70;99.90
3256;DHT22;1640;48.504;9.224;2023-02-10T02:23:23;-4.70;99.90
3256;DHT22;1640;48.504;9.224;2023-02-10T02:26:15;-4.70;99.90
3256;DHT22;1640;48.504;9.224;2023-02-10T02:29:00;-4.60;99.90
3256;DHT22;1640;48.504;9.224;2023-02-10T02:34:30;-4.60;99.90
3256;DHT22;1640;48.504;9.224;2023-02-10T02:37:03;-4.60;99.90
3256;DHT22;1640;48.504;9.224;2023-02-10T02:39:32;-4.60;99.90
3256;DHT22;1640;48.504;9.224;2023-02-10T02:42:20;-4.60;99.90
3256;DHT22;1640;48.504;9.224;2023-02-10T02:44:51;-4.60;99.90
3256;DHT22;1640;48.504;9.224;2023-02-10T02:47:34;-4.60;99.90
3256;DHT22;1640;48.504;9.224;2023-02-10T02:50:14;-4.60;99.90
3256;DHT22;1640;48.504;9.224;2023-02-10T02:52:50;-4.60;99.90
3256;DHT22;1640;48.504;9.224;2023-02-10T02:55:24;-4.60;99.90
3256;DHT22;1640;48.504;9.224;2023-02-10T02:57:57;-4.60;99.90
3256;DHT22;1640;48.504;9.224;2023-02-10T03:00:30;-4.60;99.90
3256;DHT22;1640;48.504;9.224;2023-02-10T03:03:00;-4.60;99.90
3256;DHT22;1640;48.504;9.224;2023-02-10T03:05:30;-4.60;99.90
3256;DHT22;1640;48.504;9.224;2023-02-10T03:07:58;-4.60;99.90
3256;DHT22;1640;48.504;9.224;2023-02-10T03:10:25;-4.70;99.90
3256;DHT22;1640;48.504;9.224;2023-02-10T03:12:53;-4.70;99.90
3256;DHT22;1640;48.504;9.224;2023-02-10T03:15:20;-4.80;99.90
3256;DHT22;1640;48.504;9.224;2023-02-10T03:17:48;-4.80;99.90
3256;DHT22;1640;48.504;9.224;2023-02-10T03:20:17;-4.90;99.90
3256;DHT22;1640;48.504;9.224;2023-02-10T03:22:44;-4.90;99.90
3256;DHT22;1640;48.504;9.224;2023-02-10T03:25:11;-5.00;99.90
3256;DHT22;1640;48.504;9.224;2023-02-10T03:27:39;-5.10;99.90
3256;DHT22;1640;48.504;9.224;2023-02-10T03:30:09;-5.10;99.90
3256;DHT22;1640;48.504;9.224;2023-02-10T03:32:37;-5.10;99.90
3256;DHT22;1640;48.504;9.224;2023-02-10T03:35:05;-5.10;99.90
3256;DHT22;1640;48.504;9.224;2023-02-10T03:37:34;-5.20;99.90
3256;DHT22;1640;48.504;9.224;2023-02-10T03:40:03;-5.20;99.90
3256;DHT22;1640;48.504;9.224;2023-02-10T03:42:31;-5.20;99.90
3256;DHT22;1640;48.504;9.224;2023-02-10T03:44:58;-5.20;99.90
3256;DHT22;1640;48.504;9.224;2023-02-10T03:47:25;-5.20;99.90
3256;DHT22;1640;48.504;9.224;2023-02-10T03:49:53;-5.30;99.90
3256;DHT22;1640;48.504;9.224;2023-02-10T03:52:20;-5.30;99.90
3256;DHT22;1640;48.504;9.224;2023-02-10T03:54:49;-5.20;99.90
3256;DHT22;1640;48.504;9.224;2023-02-10T03:57:16;-5.30;99.90
3256;DHT22;1640;48.504;9.224;2023-02-10T03:59:45;-5.30;99.90
3256;DHT22;1640;48.504;9.224;2023-02-10T04:02:13;-5.30;99.90
3256;DHT22;1640;48.504;9.224;2023-02-10T04:04:40;-5.30;99.90
3256;DHT22;1640;48.504;9.224;2023-02-10T04:07:08;-5.20;99.90
3256;DHT22;1640;48.504;9.224;2023-02-10T04:09:35;-5.20;99.90
3256;DHT22;1640;48.504;9.224;2023-02-10T04:12:04;-5.20;99.90
3256;DHT22;1640;48.504;9.224;2023-02-10T04:14:32;-5.20;99.90
3256;DHT22;1640;48.504;9.224;2023-02-10T04:17:00;-5.20;99.90
3256;DHT22;1640;48.504;9.224;2023-02-10T04:19:27;-5.10;99.90
3256;DHT22;1640;48.504;9.224;2023-02-10T04:21:54;-5.10;99.90
3256;DHT22;1640;48.504;9.224;2023-02-10T04:24:22;-5.10;99.90
3256;DHT22;1640;48.504;9.224;2023-02-10T04:26:49;-5.10;99.90
3256;DHT22;1640;48.504;9.224;2023-02-10T04:29:18;-5.20;99.90
3256;DHT22;1640;48.504;9.224;2023-02-10T04:31:46;-5.10;99.90
3256;DHT22;1640;48.504;9.224;2023-02-10T04:34:13;-5.10;99.90
3256;DHT22;1640;48.504;9.224;2023-02-10T04:36:41;-5.10;99.90
3256;DHT22;1640;48.504;9.224;2023-02-10T04:39:08;-5.10;99.90
3256;DHT22;1640;48.504;9.224;2023-02-10T04:41:35;-5.20;99.90
3256;DHT22;1640;48.504;9.224;2023-02-10T04:44:03;-5.20;99.90
3256;DHT22;1640;48.504;9.224;2023-02-10T04:46:33;-5.20;99.90
3256;DHT22;1640;48.504;9.224;2023-02-10T04:49:00;-5.20;99.90
3256;DHT22;1640;48.504;9.224;2023-02-10T04:51:27;-5.30;99.90
3256;DHT22;1640;48.504;9.224;2023-02-10T04:53:55;-5.30;99.90
3256;DHT22;1640;48.504;9.224;2023-02-10T04:56:22;-5.30;99.90
3256;DHT22;1640;48.504;9.224;2023-02-10T04:58:50;-5.30;99.90
3256;DHT22;1640;48.504;9.224;2023-02-10T05:01:17;-5.30;99.90
3256;DHT22;1640;48.504;9.224;2023-02-10T05:03:46;-5.30;99.90
3256;DHT22;1640;48.504;9.224;2023-02-10T05:06:15;-5.30;99.90
3256;DHT22;1640;48.504;9.224;2023-02-10T05:08:42;-5.30;99.90
3256;DHT22;1640;48.504;9.224;2023-02-10T05:11:11;-5.30;99.90
3256;DHT22;1640;48.504;9.224;2023-02-10T05:13:38;-5.20;99.90
3256;DHT22;1640;48.504;9.224;2023-02-10T05:16:07;-5.20;99.90
3256;DHT22;1640;48.504;9.224;2023-02-10T05:18:34;-5.20;99.90
3256;DHT22;1640;48.504;9.224;2023-02-10T05:21:03;-5.20;99.90
3256;DHT22;1640;48.504;9.224;2023-02-10T05:23:31;-5.30;99.90
3256;DHT22;1640;48.504;9.224;2023-02-10T05:25:58;-5.30;99.90
3256;DHT22;1640;48.504;9.224;2023-02-10T05:28:26;-5.30;99.90
3256;DHT22;1640;48.504;9.224;2023-02-10T05:30:54;-5.40;99.90
3256;DHT22;1640;48.504;9.224;2023-02-10T05:33:21;-5.40;99.90
3256;DHT22;1640;48.504;9.224;2023-02-10T05:35:49;-5.40;99.90
3256;DHT22;1640;48.504;9.224;2023-02-10T05:38:18;-5.40;99.90
3256;DHT22;1640;48.504;9.224;2023-02-10T05:40:45;-5.50;99.90
3256;DHT22;1640;48.504;9.224;2023-02-10T05:43:13;-5.50;99.90
3256;DHT22;1640;48.504;9.224;2023-02-10T05:45:40;-5.60;99.90
3256;DHT22;1640;48.504;9.224;2023-02-10T05:48:08;-5.60;99.90
3256;DHT22;1640;48.504;9.224;2023-02-10T05:50:35;-5.50;99.90
3256;DHT22;1640;48.504;9.224;2023-02-10T05:53:05;-5.50;99.90
3256;DHT22;1640;48.504;9.224;2023-02-10T05:55:34;-5.40;99.90
3256;DHT22;1640;48.504;9.224;2023-02-10T05:58:02;-5.30;99.90
3256;DHT22;1640;48.504;9.224;2023-02-10T06:00:29;-5.30;99.90
3256;DHT22;1640;48.504;9.224;2023-02-10T06:02:57;-5.30;99.90
3256;DHT22;1640;48.504;9.224;2023-02-10T06:05:24;-5.30;99.90
3256;DHT22;1640;48.504;9.224;2023-02-10T06:07:51;-5.30;99.90
3256;DHT22;1640;48.504;9.224;2023-02-10T06:10:20;-5.30;99.90
3256;DHT22;1640;48.504;9.224;2023-02-10T06:12:50;-5.20;99.90
3256;DHT22;1640;48.504;9.224;2023-02-10T06:15:17;-5.30;99.90
3256;DHT22;1640;48.504;9.224;2023-02-10T06:17:45;-5.30;99.90
3256;DHT22;1640;48.504;9.224;2023-02-10T06:20:13;-5.30;99.90
3256;DHT22;1640;48.504;9.224;2023-02-10T06:22:40;-5.30;99.90
3256;DHT22;1640;48.504;9.224;2023-02-10T06:25:07;-5.30;99.90
3256;DHT22;1640;48.504;9.224;2023-02-10T06:27:35;-5.30;99.90
3256;DHT22;1640;48.504;9.224;2023-02-10T06:30:05;-5.30;99.90
3256;DHT22;1640;48.504;9.224;2023-02-10T06:32:33;-5.30;99.90
3256;DHT22;1640;48.504;9.224;2023-02-10T06:35:00;-5.30;99.90
3256;DHT22;1640;48.504;9.224;2023-02-10T06:37:28;-5.30;99.90
3256;DHT22;1640;48.504;9.224;2023-02-10T06:39:56;-5.30;99.90
3256;DHT22;1640;48.504;9.224;2023-02-10T06:42:23;-5.30;99.90
3256;DHT22;1640;48.504;9.224;2023-02-10T06:44:51;-5.30;99.90
3256;DHT22;1640;48.504;9.224;2023-02-10T06:47:19;-5.30;99.90
3256;DHT22;1640;48.504;9.224;2023-02-10T06:49:47;-5.30;99.90
3256;DHT22;1640;48.504;9.224;2023-02-10T06:52:14;-5.30;99.90
3256;DHT22;1640;48.504;9.224;2023-02-10T06:54:42;-5.30;99.90
3256;DHT22;1640;48.504;9.224;2023-02-10T06:57:10;-5.30;99.90
3256;DHT22;1640;48.504;9.224;2023-02-10T06:59:37;-5.30;99.90
3256;DHT22;1640;48.504;9.224;2023-02-10T07:02:05;-5.30;99.90
3256;DHT22;1640;48.504;9.224;2023-02-10T07:04:37;-5.30;99.90
3256;DHT22;1640;48.504;9.224;2023-02-10T07:07:04;-5.30;99.90
3256;DHT22;1640;48.504;9.224;2023-02-10T07:09:32;-5.20;99.90
3256;DHT22;1640;48.504;9.224;2023-02-10T07:11:59;-5.20;99.90
3256;DHT22;1640;48.504;9.224;2023-02-10T07:14:27;-5.10;99.90
3256;DHT22;1640;48.504;9.224;2023-02-10T07:16:54;-5.10;99.90
3256;DHT22;1640;48.504;9.224;2023-02-10T07:19:21;-5.00;99.90
3256;DHT22;1640;48.504;9.224;2023-02-10T07:21:50;-5.00;99.90
3256;DHT22;1640;48.504;9.224;2023-02-10T07:24:18;-4.90;99.90
3256;DHT22;1640;48.504;9.224;2023-02-10T07:26:45;-4.80;99.90
3256;DHT22;1640;48.504;9.224;2023-02-10T07:29:13;-4.80;99.90
3256;DHT22;1640;48.504;9.224;2023-02-10T07:31:40;-4.80;99.90
3256;DHT22;1640;48.504;9.224;2023-02-10T07:34:08;-4.80;99.90
3256;DHT22;1640;48.504;9.224;2023-02-10T07:36:35;-4.80;99.90
3256;DHT22;1640;48.504;9.224;2023-02-10T07:39:04;-4.70;99.90
3256;DHT22;1640;48.504;9.224;2023-02-10T07:41:31;-4.70;99.90
3256;DHT22;1640;48.504;9.224;2023-02-10T07:43:59;-4.60;99.90
3256;DHT22;1640;48.504;9.224;2023-02-10T07:46:26;-4.60;99.90
3256;DHT22;1640;48.504;9.224;2023-02-10T07:48:54;-4.60;99.90
3256;DHT22;1640;48.504;9.224;2023-02-10T07:51:21;-4.50;99.90
3256;DHT22;1640;48.504;9.224;2023-02-10T07:53:48;-4.50;99.90
3256;DHT22;1640;48.504;9.224;2023-02-10T07:56:17;-4.30;99.90
3256;DHT22;1640;48.504;9.224;2023-02-10T07:58:44;-4.20;99.90
3256;DHT22;1640;48.504;9.224;2023-02-10T08:01:12;-4.10;99.90
3256;DHT22;1640;48.504;9.224;2023-02-10T08:03:39;-4.00;99.90
3256;DHT22;1640;48.504;9.224;2023-02-10T08:06:07;-3.90;99.90
3256;DHT22;1640;48.504;9.224;2023-02-10T08:08:35;-3.80;99.90
3256;DHT22;1640;48.504;9.224;2023-02-10T08:11:03;-3.70;99.90
3256;DHT22;1640;48.504;9.224;2023-02-10T08:13:33;-3.60;99.90
3256;DHT22;1640;48.504;9.224;2023-02-10T08:16:03;-3.50;99.90
3256;DHT22;1640;48.504;9.224;2023-02-10T08:18:33;-3.40;99.90
3256;DHT22;1640;48.504;9.224;2023-02-10T08:21:01;-3.30;99.90
3256;DHT22;1640;48.504;9.224;2023-02-10T08:23:30;-3.30;99.90
3256;DHT22;1640;48.504;9.224;2023-02-10T08:25:58;-3.20;99.90
3256;DHT22;1640;48.504;9.224;2023-02-10T08:28:25;-3.20;99.90
3256;DHT22;1640;48.504;9.224;2023-02-10T08:30:58;-3.10;99.90
3256;DHT22;1640;48.504;9.224;2023-02-10T08:33:26;-3.00;99.90
3256;DHT22;1640;48.504;9.224;2023-02-10T08:35:53;-3.00;99.90
3256;DHT22;1640;48.504;9.224;2023-02-10T08:38:21;-2.80;99.90
3256;DHT22;1640;48.504;9.224;2023-02-10T08:40:54;-2.70;99.90
3256;DHT22;1640;48.504;9.224;2023-02-10T08:43:22;-2.70;99.90
3256;DHT22;1640;48.504;9.224;2023-02-10T08:45:49;-2.60;99.90
3256;DHT22;1640;48.504;9.224;2023-02-10T08:48:18;-2.60;99.90
3256;DHT22;1640;48.504;9.224;2023-02-10T08:50:46;-2.40;99.90
3256;DHT22;1640;48.504;9.224;2023-02-10T08:53:13;-2.20;99.90
3256;DHT22;1640;48.504;9.224;2023-02-10T08:55:41;-2.00;99.90
3256;DHT22;1640;48.504;9.224;2023-02-10T08:58:08;-2.00;99.90
3256;DHT22;1640;48.504;9.224;2023-02-10T09:00:36;-1.90;0.50
3256;DHT22;1640;48.504;9.224;2023-02-10T09:03:03;-1.90;4.20
3256;DHT22;1640;48.504;9.224;2023-02-10T09:05:34;-1.70;5.50
3256;DHT22;1640;48.504;9.224;2023-02-10T09:08:02;-1.70;12.30
3256;DHT22;1640;48.504;9.224;2023-02-10T09:10:31;-1.60;15.60
3256;DHT22;1640;48.504;9.224;2023-02-10T09:12:58;-1.50;16.60
3256;DHT22;1640;48.504;9.224;2023-02-10T09:15:25;-1.50;18.20
3256;DHT22;1640;48.504;9.224;2023-02-10T09:17:53;-1.40;21.30
3256;DHT22;1640;48.504;9.224;2023-02-10T09:20:20;-1.40;25.20
3256;DHT22;1640;48.504;9.224;2023-02-10T09:22:49;-1.30;23.70
3256;DHT22;1640;48.504;9.224;2023-02-10T09:25:18;-1.20;26.70
3256;DHT22;1640;48.504;9.224;2023-02-10T09:27:45;-1.00;27.30
3256;DHT22;1640;48.504;9.224;2023-02-10T09:30:13;-0.90;29.50
3256;DHT22;1640;48.504;9.224;2023-02-10T09:32:40;-0.70;32.20
3256;DHT22;1640;48.504;9.224;2023-02-10T09:35:08;-0.70;36.80
3256;DHT22;1640;48.504;9.224;2023-02-10T09:37:35;-0.50;39.80
3256;DHT22;1640;48.504;9.224;2023-02-10T09:40:05;-0.40;43.80
3256;DHT22;1640;48.504;9.224;2023-02-10T09:42:41;-0.30;48.20
3256;DHT22;1640;48.504;9.224;2023-02-10T09:45:21;-0.30;50.20
3256;DHT22;1640;48.504;9.224;2023-02-10T09:47:52;-0.20;49.80
3256;DHT22;1640;48.504;9.224;2023-02-10T09:50:36;-0.20;49.90
3256;DHT22;1640;48.504;9.224;2023-02-10T09:53:11;-0.10;49.00
3256;DHT22;1640;48.504;9.224;2023-02-10T09:55:45;0.00;48.90
3256;DHT22;1640;48.504;9.224;2023-02-10T09:58:19;0.10;51.70
3256;DHT22;1640;48.504;9.224;2023-02-10T10:00:52;0.10;50.90
3256;DHT22;1640;48.504;9.224;2023-02-10T10:03:26;0.30;51.60
3256;DHT22;1640;48.504;9.224;2023-02-10T10:06:02;0.40;53.60
3256;DHT22;1640;48.504;9.224;2023-02-10T10:08:34;0.50;57.80
3256;DHT22;1640;48.504;9.224;2023-02-10T10:11:19;0.60;58.60
3256;DHT22;1640;48.504;9.224;2023-02-10T10:13:49;0.70;63.30
3256;DHT22;1640;48.504;9.224;2023-02-10T10:16:22;0.90;65.50
3256;DHT22;1640;48.504;9.224;2023-02-10T10:19:03;0.90;65.50
3256;DHT22;1640;48.504;9.224;2023-02-10T10:21:43;1.10;66.30
3256;DHT22;1640;48.504;9.224;2023-02-10T10:24:28;1.20;68.00
3256;DHT22;1640;48.504;9.224;2023-02-10T10:27:10;1.30;70.30
3256;DHT22;1640;48.504;9.224;2023-02-10T10:29:47;1.30;71.90
3256;DHT22;1640;48.504;9.224;2023-02-10T10:32:18;1.30;70.60
3256;DHT22;1640;48.504;9.224;2023-02-10T10:34:52;1.30;71.60
3256;DHT22;1640;48.504;9.224;2023-02-10T10:37:22;1.40;71.20
3256;DHT22;1640;48.504;9.224;2023-02-10T10:39:52;1.50;72.50
3256;DHT22;1640;48.504;9.224;2023-02-10T10:42:26;1.40;71.90
3256;DHT22;1640;48.504;9.224;2023-02-10T10:45:02;1.60;72.50
3256;DHT22;1640;48.504;9.224;2023-02-10T10:47:38;1.70;73.50
3256;DHT22;1640;48.504;9.224;2023-02-10T10:50:12;1.80;73.90
3256;DHT22;1640;48.504;9.224;2023-02-10T10:52:41;1.90;74.50
3256;DHT22;1640;48.504;9.224;2023-02-10T10:55:14;2.00;74.80
3256;DHT22;1640;48.504;9.224;2023-02-10T10:57:44;2.10;75.50
3256;DHT22;1640;48.504;9.224;2023-02-10T11:02:52;2.30;76.50
3256;DHT22;1640;48.504;9.224;2023-02-10T11:05:19;2.30;76.40
3256;DHT22;1640;48.504;9.224;2023-02-10T11:07:48;2.30;76.70
3256;DHT22;1640;48.504;9.224;2023-02-10T11:10:21;2.40;76.20
3256;DHT22;1640;48.504;9.224;2023-02-10T11:12:50;2.40;76.20
3256;DHT22;1640;48.504;9.224;2023-02-10T11:15:33;2.60;77.20
3256;DHT22;1640;48.504;9.224;2023-02-10T11:18:05;2.70;77.50
3256;DHT22;1640;48.504;9.224;2023-02-10T11:20:35;2.60;77.50
3256;DHT22;1640;48.504;9.224;2023-02-10T11:23:13;2.70;77.40
3256;DHT22;1640;48.504;9.224;2023-02-10T11:25:41;2.90;78.10
3256;DHT22;1640;48.504;9.224;2023-02-10T11:28:19;3.00;77.90
3256;DHT22;1640;48.504;9.224;2023-02-10T11:30:53;3.00;78.10
3256;DHT22;1640;48.504;9.224;2023-02-10T11:33:23;3.10;78.80
3256;DHT22;1640;48.504;9.224;2023-02-10T11:35:55;3.30;78.50
3256;DHT22;1640;48.504;9.224;2023-02-10T11:38:25;3.30;77.10
3256;DHT22;1640;48.504;9.224;2023-02-10T11:40:55;3.40;73.80
3256;DHT22;1640;48.504;9.224;2023-02-10T11:43:29;3.50;71.60
3256;DHT22;1640;48.504;9.224;2023-02-10T11:45:58;3.50;72.60
3256;DHT22;1640;48.504;9.224;2023-02-10T11:48:28;3.60;71.60
3256;DHT22;1640;48.504;9.224;2023-02-10T11:51:05;3.60;70.50
3256;DHT22;1640;48.504;9.224;2023-02-10T11:53:36;3.70;70.90
3256;DHT22;1640;48.504;9.224;2023-02-10T11:56:07;3.70;69.50
3256;DHT22;1640;48.504;9.224;2023-02-10T11:58:55;3.70;71.10
3256;DHT22;1640;48.504;9.224;2023-02-10T12:01:38;3.80;72.30
3256;DHT22;1640;48.504;9.224;2023-02-10T12:04:18;3.90;70.30
3256;DHT22;1640;48.504;9.224;2023-02-10T12:06:55;4.00;69.00
3256;DHT22;1640;48.504;9.224;2023-02-10T12:09:33;4.00;67.50
3256;DHT22;1640;48.504;9.224;2023-02-10T12:12:08;4.00;66.70
3256;DHT22;1640;48.504;9.224;2023-02-10T12:14:48;4.10;68.80
3256;DHT22;1640;48.504;9.224;2023-02-10T12:17:24;4.10;68.80
3256;DHT22;1640;48.504;9.224;2023-02-10T12:20:13;4.30;67.50
3256;DHT22;1640;48.504;9.224;2023-02-10T12:23:05;4.30;66.50
3256;DHT22;1640;48.504;9.224;2023-02-10T12:25:39;4.40;65.60
3256;DHT22;1640;48.504;9.224;2023-02-10T12:28:21;4.40;66.60
3256;DHT22;1640;48.504;9.224;2023-02-10T12:30:59;4.50;66.30
3256;DHT22;1640;48.504;9.224;2023-02-10T12:33:40;4.70;65.70
3256;DHT22;1640;48.504;9.224;2023-02-10T12:36:14;4.70;63.30
3256;DHT22;1640;48.504;9.224;2023-02-10T12:38:55;4.70;63.00
3256;DHT22;1640;48.504;9.224;2023-02-10T12:41:29;4.70;63.90
3256;DHT22;1640;48.504;9.224;2023-02-10T12:44:12;4.70;63.70
3256;DHT22;1640;48.504;9.224;2023-02-10T12:46:52;4.70;63.20
3256;DHT22;1640;48.504;9.224;2023-02-10T12:49:34;4.60;62.90
3256;DHT22;1640;48.504;9.224;2023-02-10T12:52:07;4.70;61.00
3256;DHT22;1640;48.504;9.224;2023-02-10T12:54:43;4.80;58.90
3256;DHT22;1640;48.504;9.224;2023-02-10T12:57:17;4.70;58.60
3256;DHT22;1640;48.504;9.224;2023-02-10T12:59:52;4.70;59.30
3256;DHT22;1640;48.504;9.224;2023-02-10T13:02:27;4.80;58.80
3256;DHT22;1640;48.504;9.224;2023-02-10T13:04:57;4.80;56.90
3256;DHT22;1640;48.504;9.224;2023-02-10T13:07:31;4.80;55.90
3256;DHT22;1640;48.504;9.224;2023-02-10T13:10:09;4.80;56.50
3256;DHT22;1640;48.504;9.224;2023-02-10T13:12:44;4.70;57.30
3256;DHT22;1640;48.504;9.224;2023-02-10T13:15:16;4.80;56.70
3256;DHT22;1640;48.504;9.224;2023-02-10T13:17:47;4.90;55.90
3256;DHT22;1640;48.504;9.224;2023-02-10T13:20:34;4.90;55.20
3256;DHT22;1640;48.504;9.224;2023-02-10T13:23:13;5.00;55.10
3256;DHT22;1640;48.504;9.224;2023-02-10T13:25:54;5.10;55.90
3256;DHT22;1640;48.504;9.224;2023-02-10T13:28:27;5.20;55.60
3256;DHT22;1640;48.504;9.224;2023-02-10T13:31:19;5.30;55.60
3256;DHT22;1640;48.504;9.224;2023-02-10T13:33:58;5.40;53.30
3256;DHT22;1640;48.504;9.224;2023-02-10T13:36:29;5.30;53.20
3256;DHT22;1640;48.504;9.224;2023-02-10T13:39:00;5.30;53.90
3256;DHT22;1640;48.504;9.224;2023-02-10T13:41:31;5.10;53.90
3256;DHT22;1640;48.504;9.224;2023-02-10T13:44:22;5.10;53.20
3256;DHT22;1640;48.504;9.224;2023-02-10T13:46:56;5.10;53.50
3256;DHT22;1640;48.504;9.224;2023-02-10T13:49:27;5.10;54.40
3256;DHT22;1640;48.504;9.224;2023-02-10T13:52:06;5.20;54.30
3256;DHT22;1640;48.504;9.224;2023-02-10T13:54:35;5.30;54.40
3256;DHT22;1640;48.504;9.224;2023-02-10T13:57:03;5.40;53.50
3256;DHT22;1640;48.504;9.224;2023-02-10T13:59:38;5.50;52.00
3256;DHT22;1640;48.504;9.224;2023-02-10T14:02:18;5.50;51.60
3256;DHT22;1640;48.504;9.224;2023-02-10T14:04:50;5.50;51.70
3256;DHT22;1640;48.504;9.224;2023-02-10T14:07:34;5.50;51.80
3256;DHT22;1640;48.504;9.224;2023-02-10T14:10:25;5.50;51.70
3256;DHT22;1640;48.504;9.224;2023-02-10T14:12:55;5.40;48.60
3256;DHT22;1640;48.504;9.224;2023-02-10T14:15:26;5.50;48.50
3256;DHT22;1640;48.504;9.224;2023-02-10T14:17:59;5.40;48.90
3256;DHT22;1640;48.504;9.224;2023-02-10T14:20:32;5.40;49.10
3256;DHT22;1640;48.504;9.224;2023-02-10T14:23:01;5.40;49.00
3256;DHT22;1640;48.504;9.224;2023-02-10T14:25:33;5.70;49.00
3256;DHT22;1640;48.504;9.224;2023-02-10T14:28:02;5.70;48.50
3256;DHT22;1640;48.504;9.224;2023-02-10T14:30:38;5.60;48.70
3256;DHT22;1640;48.504;9.224;2023-02-10T14:33:17;5.70;49.10
3256;DHT22;1640;48.504;9.224;2023-02-10T14:35:50;5.70;49.50
3256;DHT22;1640;48.504;9.224;2023-02-10T14:38:21;5.70;49.40
3256;DHT22;1640;48.504;9.224;2023-02-10T14:43:21;5.60;49.80
3256;DHT22;1640;48.504;9.224;2023-02-10T14:45:49;5.70;50.20
3256;DHT22;1640;48.504;9.224;2023-02-10T14:48:19;5.60;49.40
3256;DHT22;1640;48.504;9.224;2023-02-10T14:51:04;5.50;48.60
3256;DHT22;1640;48.504;9.224;2023-02-10T14:53:34;5.50;49.50
3256;DHT22;1640;48.504;9.224;2023-02-10T14:56:06;5.50;49.70
3256;DHT22;1640;48.504;9.224;2023-02-10T14:58:42;5.50;50.20
3256;DHT22;1640;48.504;9.224;2023-02-10T15:01:18;5.40;50.20
3256;DHT22;1640;48.504;9.224;2023-02-10T15:03:47;5.40;50.10
3256;DHT22;1640;48.504;9.224;2023-02-10T15:06:18;5.40;49.80
3256;DHT22;1640;48.504;9.224;2023-02-10T15:08:50;5.50;49.30
3256;DHT22;1640;48.504;9.224;2023-02-10T15:11:22;5.50;49.40
3256;DHT22;1640;48.504;9.224;2023-02-10T15:14:05;5.40;50.20
3256;DHT22;1640;48.504;9.224;2023-02-10T15:16:37;5.40;51.00
3256;DHT22;1640;48.504;9.224;2023-02-10T15:19:04;5.30;51.40
3256;DHT22;1640;48.504;9.224;2023-02-10T15:21:35;5.30;51.40
3256;DHT22;1640;48.504;9.224;2023-02-10T15:24:03;5.30;51.30
3256;DHT22;1640;48.504;9.224;2023-02-10T15:26:34;5.20;51.80
3256;DHT22;1640;48.504;9.224;2023-02-10T15:29:09;5.20;52.50
3256;DHT22;1640;48.504;9.224;2023-02-10T15:31:38;5.20;52.00
3256;DHT22;1640;48.504;9.224;2023-02-10T15:34:16;5.30;52.70
3256;DHT22;1640;48.504;9.224;2023-02-10T15:36:49;5.20;52.40
3256;DHT22;1640;48.504;9.224;2023-02-10T15:39:21;5.10;52.90
3256;DHT22;1640;48.504;9.224;2023-02-10T15:42:04;5.10;53.30
3256;DHT22;1640;48.504;9.224;2023-02-10T15:44:37;5.00;53.60
3256;DHT22;1640;48.504;9.224;2023-02-10T15:47:20;5.10;53.30
3256;DHT22;1640;48.504;9.224;2023-02-10T15:49:51;5.10;53.50
3256;DHT22;1640;48.504;9.224;2023-02-10T15:52:22;5.00;53.90
3256;DHT22;1640;48.504;9.224;2023-02-10T15:54:51;4.90;54.20
3256;DHT22;1640;48.504;9.224;2023-02-10T15:57:19;4.80;54.70
3256;DHT22;1640;48.504;9.224;2023-02-10T15:59:47;4.70;55.80
3256;DHT22;1640;48.504;9.224;2023-02-10T16:02:18;4.60;56.50
3256;DHT22;1640;48.504;9.224;2023-02-10T16:04:45;4.60;56.90
3256;DHT22;1640;48.504;9.224;2023-02-10T16:07:17;4.40;57.30
3256;DHT22;1640;48.504;9.224;2023-02-10T16:09:47;4.30;58.10
3256;DHT22;1640;48.504;9.224;2023-02-10T16:12:14;4.10;59.00
3256;DHT22;1640;48.504;9.224;2023-02-10T16:14:42;4.00;60.10
3256;DHT22;1640;48.504;9.224;2023-02-10T16:17:10;3.90;60.60
3256;DHT22;1640;48.504;9.224;2023-02-10T16:19:40;3.80;61.40
3256;DHT22;1640;48.504;9.224;2023-02-10T16:22:09;3.70;62.70
3256;DHT22;1640;48.504;9.224;2023-02-10T16:24:36;3.50;63.90
3256;DHT22;1640;48.504;9.224;2023-02-10T16:27:05;3.40;65.30
3256;DHT22;1640;48.504;9.224;2023-02-10T16:29:32;3.30;65.90
3256;DHT22;1640;48.504;9.224;2023-02-10T16:32:00;3.20;67.30
3256;DHT22;1640;48.504;9.224;2023-02-10T16:34:27;3.10;68.30
3256;DHT22;1640;48.504;9.224;2023-02-10T16:36:56;2.90;69.00
3256;DHT22;1640;48.504;9.224;2023-02-10T16:39:25;2.70;70.00
3256;DHT22;1640;48.504;9.224;2023-02-10T16:41:54;2.50;71.20